Notl Queenston

*Note: All times are displayed in the local standard time of the station location.
**Rain - Equipment is designed to accurately record liquid precipitation; under conditions when precipitation is not in liquid form, the data displayed may not properly reflect rainfall values.

Date Max Temp
(°C)
Min Temp
(°C)
Avg Temp
(°C)
Rain (mm) Avg RH (%) Solar Rad (kJ/m2)
Mon, Apr 23, 2018 21.5 1.1 11.6 0.0 47.5 17673.4
Sun, Apr 22, 2018 16.5 -2.9 7.8 0.0 53.4 17673.1
Sat, Apr 21, 2018 14.1 -4.2 5.8 0.0 55.0 17006.1
Fri, Apr 20, 2018 7.8 -1.6 2.7 0.0 60.6 16810.3
Thu, Apr 19, 2018 3.8 0.8 2.0 0.0 68.4 7145.9
Wed, Apr 18, 2018 4.3 0.8 2.3 0.0 77.8 5992.4
Tue, Apr 17, 2018 1.7 -0.4 0.7 0.6 77.9 6372.6
DateTime Avg Temp (°C) Rain (mm) RH (%) Solar Rad (kJ/m2)
Tue, Apr 24, 2018 18:00 13.1 0.8 83.3 221.9
Tue, Apr 24, 2018 17:00 14.3 0.0 71.5 339.1
Tue, Apr 24, 2018 16:00 14.6 0.0 58.0 442.8
Tue, Apr 24, 2018 15:00 16.3 0.0 50.5 749.0
Tue, Apr 24, 2018 14:00 19.0 0.0 35.0 1200.4
Tue, Apr 24, 2018 13:00 18.3 0.0 38.0 1563.4
Tue, Apr 24, 2018 12:00 16.2 0.0 40.5 968.4
Tue, Apr 24, 2018 11:00 15.4 0.0 51.5 1107.7
Tue, Apr 24, 2018 10:00 14.5 0.0 57.3 956.7
Tue, Apr 24, 2018 09:00 14.4 0.0 55.8 517.1
Tue, Apr 24, 2018 08:00 13.4 0.0 56.5 260.5
Tue, Apr 24, 2018 07:00 12.6 0.0 60.5 29.9
Tue, Apr 24, 2018 06:00 12.7 0.0 59.0 -
Tue, Apr 24, 2018 05:00 12.8 0.0 58.0 -
Tue, Apr 24, 2018 04:00 13.5 0.0 54.5 0.0
Tue, Apr 24, 2018 03:00 7.1 0.0 77.0 0.0
Tue, Apr 24, 2018 02:00 5.4 0.0 81.0 -
Tue, Apr 24, 2018 01:00 5.1 0.0 83.8 -
Tue, Apr 24, 2018 00:00 5.7 0.0 79.3 -
Mon, Apr 23, 2018 23:00 6.5 0.0 75.0 -
Mon, Apr 23, 2018 22:00 8.2 0.0 69.0 -
Mon, Apr 23, 2018 21:00 10.6 0.0 59.8 1.0
Mon, Apr 23, 2018 20:00 14.5 0.0 44.8 116.7
Mon, Apr 23, 2018 19:00 19.0 0.0 32.3 524.4
Mon, Apr 23, 2018 18:00 20.6 0.0 28.5 1068.4
Mon, Apr 23, 2018 17:00 21.2 0.0 26.0 1525.2
Mon, Apr 23, 2018 16:00 20.5 0.0 25.8 1900.8
Mon, Apr 23, 2018 15:00 19.9 0.0 26.3 2152.4
Mon, Apr 23, 2018 14:00 18.9 0.0 28.8 2258.5
Mon, Apr 23, 2018 13:00 19.6 0.0 21.0 2220.7
Mon, Apr 23, 2018 12:00 18.5 0.0 22.8 2033.6
Mon, Apr 23, 2018 11:00 16.6 0.0 23.3 1709.7
Mon, Apr 23, 2018 10:00 13.9 0.0 26.0 1233.9
Mon, Apr 23, 2018 09:00 11.4 0.0 29.0 563.0
Mon, Apr 23, 2018 08:00 8.7 0.0 34.0 335.5
Mon, Apr 23, 2018 07:00 5.5 0.0 45.8 29.6
Mon, Apr 23, 2018 06:00 3.2 0.0 67.0 -
Mon, Apr 23, 2018 05:00 3.6 0.0 62.8 0.0
Mon, Apr 23, 2018 04:00 2.9 0.0 77.8 -
Mon, Apr 23, 2018 03:00 4.0 0.0 71.0 -
Mon, Apr 23, 2018 02:00 2.3 0.0 81.5 0.0
Mon, Apr 23, 2018 01:00 2.0 0.0 82.8 -
Mon, Apr 23, 2018 00:00 5.7 0.0 63.8 0.0
Sun, Apr 22, 2018 23:00 5.9 0.0 60.0 -
Sun, Apr 22, 2018 22:00 5.9 0.0 61.5 -
Sun, Apr 22, 2018 21:00 9.7 0.0 42.3 1.9
Sun, Apr 22, 2018 20:00 14.7 0.0 23.3 167.1
Sun, Apr 22, 2018 19:00 16.0 0.0 20.8 619.5


asterix Register now to access more data! asterix